Time;durP1;ratioP1;P1;durP2;ratioP2;P2;SDS_P1;SDS_P2;PMS_P1;PMS_P2;Temp;Humidity;BMP_temperature;BMP_pressure;BME280_temperature;BME280_humidity;BME280_pressure;Samples;Min_cycle;Max_cycle;Signal;HPM_P1;HPM_P2
2023/12/08 00:02:07;;;;;;;24.73;10.60;;;1.70;99.90;;;;;;4929798;28;20216;-68
2023/12/08 00:04:34;;;;;;;18.87;10.63;;;1.30;99.90;;;;;;4962677;28;20775;-68
2023/12/08 00:07:01;;;;;;;18.50;10.20;;;1.50;99.90;;;;;;4946647;28;20735;-68
2023/12/08 00:09:28;;;;;;;24.87;10.63;;;1.50;99.90;;;;;;4922641;28;20224;-68
2023/12/08 00:11:55;;;;;;;19.30;11.10;;;1.50;99.90;;;;;;4950484;28;20234;-69
2023/12/08 00:14:22;;;;;;;17.07;10.43;;;1.50;99.90;;;;;;4963918;28;20299;-68
2023/12/08 00:16:49;;;;;;;21.23;10.63;;;1.50;99.90;;;;;;4956524;28;20232;-69
2023/12/08 00:19:17;;;;;;;20.63;10.50;;;1.50;99.90;;;;;;4952256;28;20210;-68
2023/12/08 00:21:44;;;;;;;17.23;9.57;;;1.60;99.90;;;;;;4950625;28;21474;-68
2023/12/08 00:24:11;;;;;;;16.43;9.33;;;1.50;99.90;;;;;;4927111;28;22159;-69
2023/12/08 00:26:38;;;;;;;18.10;10.00;;;1.60;99.90;;;;;;4960700;28;20200;-68
2023/12/08 00:29:05;;;;;;;18.73;9.53;;;1.50;99.90;;;;;;4950231;28;20266;-68
2023/12/08 00:31:32;;;;;;;14.87;8.97;;;1.50;99.90;;;;;;4964789;28;20202;-68
2023/12/08 00:33:59;;;;;;;15.10;9.00;;;1.50;99.90;;;;;;4946174;28;21934;-68
2023/12/08 00:36:27;;;;;;;17.33;9.07;;;1.50;99.90;;;;;;4951385;28;20210;-68
2023/12/08 00:38:55;;;;;;;13.67;9.07;;;1.50;99.90;;;;;;4959164;28;20636;-68
2023/12/08 00:41:22;;;;;;;17.27;9.43;;;1.50;99.90;;;;;;4929648;28;20213;-68
2023/12/08 00:43:49;;;;;;;15.47;8.03;;;;;;;;;;4954765;28;21603;-68
2023/12/08 00:46:17;;;;;;;15.87;9.20;;;1.50;99.90;;;;;;4954616;28;21019;-68
2023/12/08 00:48:44;;;;;;;18.60;8.47;;;1.50;99.90;;;;;;4959869;28;20228;-68
2023/12/08 00:51:13;;;;;;;15.90;8.53;;;1.60;99.90;;;;;;4923431;28;20358;-68
2023/12/08 00:53:42;;;;;;;14.77;8.83;;;1.60;99.90;;;;;;4929396;28;20811;-69
2023/12/08 00:56:09;;;;;;;14.47;8.20;;;0.80;99.90;;;;;;4903461;28;20216;-69
2023/12/08 00:58:37;;;;;;;16.30;8.70;;;1.60;99.90;;;;;;4925354;28;20222;-69
2023/12/08 01:01:04;;;;;;;16.13;7.87;;;;;;;;;;4916610;28;21883;-68
2023/12/08 01:03:31;;;;;;;16.00;7.97;;;1.50;99.90;;;;;;4926325;28;20788;-68
2023/12/08 01:05:58;;;;;;;12.87;7.70;;;1.50;99.90;;;;;;4927577;28;20399;-68
2023/12/08 01:08:25;;;;;;;12.63;7.80;;;1.50;99.90;;;;;;4931424;28;20575;-69
2023/12/08 01:10:53;;;;;;;13.57;7.90;;;1.60;99.90;;;;;;4939102;28;20231;-68
2023/12/08 01:13:20;;;;;;;11.90;7.20;;;1.60;99.90;;;;;;4903119;28;20212;-68
2023/12/08 01:15:47;;;;;;;13.07;7.47;;;1.60;99.90;;;;;;4938923;28;20210;-68
2023/12/08 01:18:14;;;;;;;12.57;7.60;;;1.60;99.90;;;;;;4943565;28;20209;-68
2023/12/08 01:20:41;;;;;;;12.77;7.60;;;2.10;99.90;;;;;;4926458;28;20904;-68
2023/12/08 01:23:08;;;;;;;9.87;7.03;;;;;;;;;;4941937;28;20207;-68
2023/12/08 01:25:35;;;;;;;12.67;7.40;;;1.60;99.90;;;;;;4933904;28;20212;-68
2023/12/08 01:28:03;;;;;;;10.73;7.33;;;1.50;99.90;;;;;;4907223;28;20224;-69
2023/12/08 01:30:30;;;;;;;11.53;6.47;;;1.50;99.90;;;;;;4933722;28;22611;-68
2023/12/08 01:32:57;;;;;;;11.87;6.70;;;1.50;99.90;;;;;;4943817;28;20335;-69
2023/12/08 01:35:24;;;;;;;13.57;7.53;;;1.00;99.90;;;;;;4933614;28;20213;-69
2023/12/08 01:37:51;;;;;;;11.03;6.43;;;0.30;99.90;;;;;;4939422;28;20214;-68
2023/12/08 01:40:18;;;;;;;13.50;7.40;;;1.50;99.90;;;;;;4930832;28;20210;-68
2023/12/08 01:42:47;;;;;;;13.60;7.33;;;1.50;99.90;;;;;;4904505;28;20872;-68
2023/12/08 01:45:15;;;;;;;10.13;5.97;;;1.50;99.90;;;;;;4931483;28;20567;-69
2023/12/08 01:47:44;;;;;;;12.37;7.43;;;2.00;99.90;;;;;;4945536;28;20213;-68
2023/12/08 01:50:13;;;;;;;12.13;6.33;;;1.50;99.90;;;;;;4953363;28;20244;-68
2023/12/08 01:52:41;;;;;;;13.60;6.50;;;0.70;99.90;;;;;;4950502;28;20393;-68
2023/12/08 01:55:10;;;;;;;10.33;6.17;;;1.50;99.90;;;;;;4952130;28;20207;-68
2023/12/08 01:57:37;;;;;;;11.17;6.97;;;1.40;99.90;;;;;;4951489;28;20203;-69
2023/12/08 02:00:06;;;;;;;10.53;7.03;;;1.40;99.90;;;;;;4925090;28;20221;-68
2023/12/08 02:02:35;;;;;;;10.87;6.10;;;1.90;99.90;;;;;;4949178;28;20274;-68
2023/12/08 02:05:04;;;;;;;11.33;6.80;;;1.50;99.90;;;;;;4955505;28;20211;-68
2023/12/08 02:07:31;;;;;;;11.57;6.63;;;2.50;99.90;;;;;;4948761;28;20225;-68
2023/12/08 02:09:58;;;;;;;10.17;6.47;;;1.50;99.90;;;;;;4950017;28;20252;-68
2023/12/08 02:12:25;;;;;;;14.03;6.47;;;1.40;99.90;;;;;;4948841;28;20236;-68
2023/12/08 02:14:52;;;;;;;11.03;6.10;;;2.30;99.90;;;;;;4925143;28;20222;-68
2023/12/08 02:17:22;;;;;;;9.37;6.23;;;1.70;99.90;;;;;;4943684;28;20206;-68
2023/12/08 02:19:52;;;;;;;10.67;6.23;;;1.60;99.90;;;;;;4956882;28;20202;-68
2023/12/08 02:22:22;;;;;;;11.37;6.27;;;4.20;99.90;;;;;;4957108;28;20201;-68
2023/12/08 02:24:51;;;;;;;12.07;6.63;;;1.10;99.90;;;;;;4949528;28;20211;-68
2023/12/08 02:27:18;;;;;;;11.10;6.27;;;;;;;;;;4948327;28;20213;-68
2023/12/08 02:29:45;;;;;;;12.87;6.23;;;1.40;99.90;;;;;;4954806;28;20227;-68
2023/12/08 02:32:19;;;;;;;11.77;6.03;;;1.40;99.90;;;;;;4918731;28;21048;-68
2023/12/08 02:34:48;;;;;;;10.10;6.03;;;1.40;99.90;;;;;;4957037;28;21303;-68
2023/12/08 02:37:17;;;;;;;9.63;5.30;;;1.40;99.90;;;;;;4957803;28;20198;-68
2023/12/08 02:39:48;;;;;;;10.27;5.73;;;1.30;99.90;;;;;;4938944;28;20206;-68
2023/12/08 02:42:16;;;;;;;10.97;6.63;;;1.30;99.90;;;;;;4957570;28;24934;-68
2023/12/08 02:44:43;;;;;;;7.73;5.57;;;1.30;99.90;;;;;;4953247;28;21003;-68
2023/12/08 02:47:10;;;;;;;10.33;6.17;;;1.80;99.90;;;;;;4917940;28;20302;-68
2023/12/08 02:49:37;;;;;;;8.47;4.93;;;1.00;99.90;;;;;;4948055;28;20240;-68
2023/12/08 02:52:04;;;;;;;8.23;5.80;;;1.40;99.90;;;;;;4956022;28;20201;-68
2023/12/08 02:54:32;;;;;;;8.97;5.77;;;;;;;;;;4951104;28;20206;-68
2023/12/08 02:56:58;;;;;;;7.97;5.23;;;1.30;99.90;;;;;;4951367;28;20213;-68
2023/12/08 02:59:27;;;;;;;11.90;6.10;;;1.30;99.90;;;;;;4956642;28;20214;-68
2023/12/08 03:01:53;;;;;;;10.67;6.50;;;1.30;99.90;;;;;;4929118;28;20671;-68
2023/12/08 03:04:21;;;;;;;8.60;5.80;;;;;;;;;;4957633;28;20205;-68
2023/12/08 03:06:48;;;;;;;10.97;5.57;;;1.30;99.90;;;;;;4956700;28;20234;-68
2023/12/08 03:09:15;;;;;;;8.83;5.47;;;;;;;;;;4964142;28;20336;-68
2023/12/08 03:11:42;;;;;;;9.17;5.53;;;1.40;99.90;;;;;;4941480;28;20226;-68
2023/12/08 03:14:09;;;;;;;9.30;6.20;;;1.30;99.90;;;;;;4956276;28;20215;-68
2023/12/08 03:16:37;;;;;;;10.37;5.67;;;1.40;99.90;;;;;;4921419;28;20211;-68
2023/12/08 03:19:04;;;;;;;7.70;5.33;;;1.40;99.90;;;;;;4946672;28;20222;-68
2023/12/08 03:21:31;;;;;;;10.93;5.50;;;1.40;99.90;;;;;;4943586;28;20990;-68
2023/12/08 03:23:58;;;;;;;9.77;5.63;;;1.40;99.90;;;;;;4952474;28;20213;-68
2023/12/08 03:26:25;;;;;;;8.60;5.33;;;1.60;99.90;;;;;;4945091;28;20211;-68
2023/12/08 03:28:52;;;;;;;8.93;5.83;;;1.40;99.90;;;;;;4941745;28;20232;-68
2023/12/08 03:31:27;;;;;;;9.60;5.67;;;1.40;99.90;;;;;;4959520;28;20203;-68
2023/12/08 03:33:55;;;;;;;9.70;5.63;;;1.40;99.90;;;;;;4928018;28;20214;-68
2023/12/08 03:36:22;;;;;;;9.03;5.87;;;;;;;;;;4946491;28;20212;-68
2023/12/08 03:38:49;;;;;;;11.80;6.33;;;1.50;99.90;;;;;;4954644;28;20224;-68
2023/12/08 03:41:16;;;;;;;7.53;5.23;;;1.40;99.90;;;;;;4944201;28;20420;-68
2023/12/08 03:43:43;;;;;;;6.63;5.43;;;1.30;99.90;;;;;;4951448;28;20773;-68
2023/12/08 03:46:10;;;;;;;9.40;5.53;;;1.30;99.90;;;;;;4952179;28;20210;-68
2023/12/08 03:48:37;;;;;;;10.13;5.50;;;1.50;99.90;;;;;;4927123;28;20220;-68
2023/12/08 03:51:06;;;;;;;8.47;5.17;;;1.30;99.90;;;;;;4953599;28;20238;-68
2023/12/08 03:53:33;;;;;;;9.03;5.70;;;1.30;99.90;;;;;;4957313;28;20199;-68
2023/12/08 03:56:00;;;;;;;8.73;5.50;;;1.30;99.90;;;;;;4950483;28;20213;-68
2023/12/08 03:58:27;;;;;;;8.90;5.37;;;1.30;99.90;;;;;;4943951;28;20215;-68
2023/12/08 04:00:54;;;;;;;9.00;5.60;;;1.30;99.90;;;;;;4948762;28;20230;-68
2023/12/08 04:03:22;;;;;;;9.33;5.37;;;1.30;99.90;;;;;;4929152;28;20221;-68
2023/12/08 04:05:49;;;;;;;8.67;5.93;;;1.30;99.90;;;;;;4950524;28;20203;-68
2023/12/08 04:08:17;;;;;;;8.53;5.70;;;1.00;99.90;;;;;;4945989;28;20780;-68
2023/12/08 04:10:44;;;;;;;8.90;6.37;;;1.30;99.90;;;;;;4942344;28;20475;-68
2023/12/08 04:13:11;;;;;;;9.47;5.40;;;1.30;99.90;;;;;;4950846;28;20199;-68
2023/12/08 04:15:38;;;;;;;8.50;5.17;;;1.30;99.90;;;;;;4933786;28;20730;-68
2023/12/08 04:18:05;;;;;;;8.30;5.50;;;1.30;99.90;;;;;;4951793;28;20606;-68
2023/12/08 04:20:32;;;;;;;7.83;5.33;;;1.30;99.90;;;;;;4912321;28;20882;-68
2023/12/08 04:22:59;;;;;;;9.13;5.60;;;2.40;99.90;;;;;;4945829;28;20207;-68
2023/12/08 04:25:27;;;;;;;9.70;5.80;;;0.00;99.90;;;;;;4943634;28;20230;-68
2023/12/08 04:27:54;;;;;;;8.03;5.37;;;1.40;99.90;;;;;;4938154;28;20687;-68
2023/12/08 04:30:21;;;;;;;8.63;5.53;;;1.40;99.90;;;;;;4938809;28;20221;-68
2023/12/08 04:32:48;;;;;;;7.93;5.67;;;1.40;99.90;;;;;;4951920;28;20200;-68
2023/12/08 04:35:14;;;;;;;8.37;5.17;;;1.40;99.90;;;;;;4917983;28;20220;-68
2023/12/08 04:37:41;;;;;;;8.93;5.67;;;1.40;99.90;;;;;;4950853;28;20200;-68
2023/12/08 04:40:09;;;;;;;9.27;5.43;;;1.30;99.90;;;;;;4939111;28;20625;-68
2023/12/08 04:42:38;;;;;;;8.97;5.33;;;1.30;99.90;;;;;;4946941;28;20212;-68
2023/12/08 04:45:05;;;;;;;9.43;6.03;;;1.20;99.90;;;;;;4940786;28;20697;-68
2023/12/08 04:47:32;;;;;;;10.07;5.93;;;1.30;99.90;;;;;;4939443;28;20236;-68
2023/12/08 04:50:00;;;;;;;8.10;5.13;;;1.30;99.90;;;;;;4901016;28;21082;-68
2023/12/08 04:52:26;;;;;;;13.53;6.47;;;1.30;99.90;;;;;;4938935;28;20349;-68
2023/12/08 04:54:53;;;;;;;10.90;5.63;;;1.30;99.90;;;;;;4942004;28;20219;-68
2023/12/08 04:57:20;;;;;;;9.00;5.93;;;1.30;99.90;;;;;;4943552;28;21061;-68
2023/12/08 04:59:48;;;;;;;7.10;4.67;;;1.50;99.90;;;;;;4940356;28;20208;-68
2023/12/08 05:02:15;;;;;;;8.83;5.20;;;1.30;99.90;;;;;;4928524;28;20408;-68
2023/12/08 05:04:43;;;;;;;9.87;5.90;;;1.20;99.90;;;;;;4952816;28;20205;-68
2023/12/08 05:07:09;;;;;;;9.60;6.80;;;1.30;99.90;;;;;;4911331;28;20365;-68
2023/12/08 05:09:37;;;;;;;10.50;6.73;;;1.30;99.90;;;;;;4934503;28;20806;-68
2023/12/08 05:12:04;;;;;;;8.50;5.60;;;1.30;99.90;;;;;;4950405;28;20202;-68
2023/12/08 05:14:31;;;;;;;12.03;6.33;;;1.20;99.90;;;;;;4953833;28;21184;-68
2023/12/08 05:16:59;;;;;;;12.43;7.50;;;1.30;99.90;;;;;;4937302;28;20296;-68
2023/12/08 05:19:26;;;;;;;22.77;9.43;;;1.20;99.90;;;;;;4950570;28;20895;-68
2023/12/08 05:21:53;;;;;;;21.57;8.47;;;1.40;99.90;;;;;;4916205;28;20215;-68
2023/12/08 05:24:20;;;;;;;36.00;11.90;;;1.30;99.90;;;;;;4931880;28;21049;-68
2023/12/08 05:26:47;;;;;;;33.10;13.10;;;1.30;99.90;;;;;;4956568;28;20240;-67
2023/12/08 05:29:14;;;;;;;12.90;6.93;;;1.30;99.90;;;;;;4946575;28;20773;-68
2023/12/08 05:31:41;;;;;;;14.63;6.63;;;1.30;99.90;;;;;;4927047;28;21005;-68
2023/12/08 05:34:09;;;;;;;9.83;5.93;;;1.30;99.90;;;;;;4937054;28;20922;-67
2023/12/08 05:36:36;;;;;;;12.23;6.33;;;1.30;99.90;;;;;;4906165;28;20215;-68
2023/12/08 05:39:04;;;;;;;9.40;6.07;;;2.10;99.90;;;;;;4926698;28;21062;-68
2023/12/08 05:41:31;;;;;;;8.83;5.93;;;1.30;99.90;;;;;;4944334;28;20303;-68
2023/12/08 05:43:58;;;;;;;10.30;6.33;;;2.70;99.90;;;;;;4949279;28;20742;-68
2023/12/08 05:46:25;;;;;;;13.73;6.37;;;1.30;99.90;;;;;;4938676;28;20382;-68
2023/12/08 05:48:52;;;;;;;13.17;7.20;;;1.30;99.90;;;;;;4946170;28;20208;-67
2023/12/08 05:51:20;;;;;;;32.90;12.53;;;1.30;99.90;;;;;;4909086;28;20479;-68
2023/12/08 05:53:47;;;;;;;46.27;14.37;;;1.30;99.90;;;;;;4948353;28;20651;-68
2023/12/08 05:56:14;;;;;;;18.43;8.37;;;1.30;99.90;;;;;;4928711;28;20522;-68
2023/12/08 05:58:41;;;;;;;9.77;6.97;;;1.30;99.90;;;;;;4946152;28;20702;-67
2023/12/08 06:01:07;;;;;;;11.97;6.70;;;1.30;99.90;;;;;;4913999;28;20424;-68
2023/12/08 06:03:34;;;;;;;12.43;7.13;;;1.30;99.90;;;;;;4954003;28;20789;-67
2023/12/08 06:06:01;;;;;;;10.30;6.30;;;1.30;99.90;;;;;;4946395;28;20204;-67
2023/12/08 06:08:32;;;;;;;12.97;6.70;;;1.30;99.90;;;;;;4911960;28;20208;-67
2023/12/08 06:10:59;;;;;;;10.70;6.33;;;1.40;99.90;;;;;;4942738;28;21089;-67
2023/12/08 06:13:26;;;;;;;11.47;6.63;;;1.30;99.90;;;;;;4950622;28;20197;-67
2023/12/08 06:15:53;;;;;;;10.37;6.80;;;1.30;99.90;;;;;;4936272;28;20232;-67
2023/12/08 06:18:19;;;;;;;10.73;6.27;;;1.30;99.90;;;;;;4944586;28;20235;-67
2023/12/08 06:20:46;;;;;;;10.53;6.67;;;1.30;99.90;;;;;;4944978;28;20200;-67
2023/12/08 06:23:13;;;;;;;9.23;6.50;;;;;;;;;;4913653;28;20219;-68
2023/12/08 06:25:42;;;;;;;11.00;6.73;;;2.40;99.90;;;;;;4947768;28;20230;-68
2023/12/08 06:28:09;;;;;;;12.03;7.07;;;2.30;99.90;;;;;;4944562;28;20201;-68
2023/12/08 06:30:35;;;;;;;10.47;6.60;;;2.70;99.90;;;;;;4962132;28;20226;-68
2023/12/08 06:33:02;;;;;;;12.83;6.73;;;2.30;99.90;;;;;;4950915;28;20231;-68
2023/12/08 06:35:29;;;;;;;12.13;6.63;;;2.30;99.90;;;;;;4966110;28;20254;-67
2023/12/08 06:37:56;;;;;;;9.03;6.17;;;2.00;99.90;;;;;;4916378;28;20585;-68
2023/12/08 06:40:23;;;;;;;11.40;7.00;;;1.90;99.90;;;;;;4948035;28;20835;-67
2023/12/08 06:42:51;;;;;;;10.13;6.07;;;1.80;99.90;;;;;;4949385;28;20775;-68
2023/12/08 06:45:18;;;;;;;10.50;6.80;;;1.50;99.90;;;;;;4957734;28;20210;-67
2023/12/08 06:47:45;;;;;;;11.00;6.30;;;1.40;99.90;;;;;;4943071;28;20310;-68
2023/12/08 06:50:12;;;;;;;11.60;6.73;;;1.60;99.90;;;;;;4953010;28;20242;-67
2023/12/08 06:52:39;;;;;;;12.00;6.47;;;1.60;99.90;;;;;;4945240;28;20437;-67
2023/12/08 06:55:06;;;;;;;11.27;6.80;;;1.50;99.90;;;;;;4921489;28;20221;-67
2023/12/08 06:57:33;;;;;;;12.93;6.73;;;1.50;99.90;;;;;;4942992;28;20214;-67
2023/12/08 07:00:07;;;;;;;9.93;7.23;;;1.50;99.90;;;;;;4950511;28;20360;-67
2023/12/08 07:02:34;;;;;;;11.57;6.80;;;1.50;99.90;;;;;;4946452;28;20636;-67
2023/12/08 07:05:01;;;;;;;10.70;6.67;;;1.50;99.90;;;;;;4956637;28;20230;-67
2023/12/08 07:07:28;;;;;;;10.50;6.67;;;1.50;99.90;;;;;;4952082;28;20237;-67
2023/12/08 07:09:54;;;;;;;11.53;6.97;;;1.40;99.90;;;;;;4909714;28;20250;-67
2023/12/08 07:12:21;;;;;;;10.73;7.00;;;3.40;99.90;;;;;;4940352;28;20229;-67
2023/12/08 07:14:50;;;;;;;12.17;6.70;;;1.40;99.90;;;;;;4944911;28;20203;-67
2023/12/08 07:17:18;;;;;;;9.43;6.53;;;1.40;99.90;;;;;;4953072;28;20206;-67
2023/12/08 07:19:45;;;;;;;9.87;6.13;;;0.60;99.90;;;;;;4939765;28;20293;-67
2023/12/08 07:22:12;;;;;;;11.17;6.30;;;1.50;99.90;;;;;;4952450;28;20579;-67
2023/12/08 07:24:40;;;;;;;12.17;6.73;;;1.50;99.90;;;;;;4910865;28;20210;-67
2023/12/08 07:27:07;;;;;;;12.67;6.83;;;1.50;99.90;;;;;;4942543;28;20714;-67
2023/12/08 07:29:34;;;;;;;9.03;6.67;;;1.50;99.90;;;;;;4952292;28;20206;-67
2023/12/08 07:32:01;;;;;;;11.87;7.20;;;1.40;99.90;;;;;;4940927;28;20525;-67
2023/12/08 07:34:29;;;;;;;11.90;6.90;;;1.50;99.90;;;;;;4944233;28;20626;-67
2023/12/08 07:36:56;;;;;;;12.97;7.60;;;1.50;99.90;;;;;;4961939;28;20207;-67
2023/12/08 07:39:23;;;;;;;11.07;6.83;;;1.80;99.90;;;;;;4929027;28;20210;-67
2023/12/08 07:41:50;;;;;;;11.30;6.90;;;1.50;99.90;;;;;;4918224;28;20967;-67
2023/12/08 07:44:16;;;;;;;11.50;7.47;;;1.50;99.90;;;;;;4957778;28;20878;-67
2023/12/08 07:46:43;;;;;;;12.30;7.30;;;1.70;99.90;;;;;;4942634;28;20535;-67
2023/12/08 07:49:10;;;;;;;10.03;6.47;;;;;;;;;;4955725;28;20234;-67
2023/12/08 07:51:39;;;;;;;11.23;6.50;;;1.40;99.90;;;;;;4937543;28;20230;-67
2023/12/08 07:54:05;;;;;;;12.57;7.10;;;1.40;99.90;;;;;;4957229;28;20814;-67
2023/12/08 07:56:33;;;;;;;14.13;7.97;;;1.40;99.90;;;;;;4921204;28;20241;-67
2023/12/08 07:59:00;;;;;;;11.57;7.13;;;1.20;99.90;;;;;;4946475;28;20789;-67
2023/12/08 08:01:27;;;;;;;12.07;6.33;;;1.40;99.90;;;;;;4954689;28;20699;-68
2023/12/08 08:03:54;;;;;;;12.63;7.20;;;;;;;;;;4950956;28;20499;-68
2023/12/08 08:06:21;;;;;;;10.87;7.13;;;2.90;99.90;;;;;;4950672;28;20622;-67
2023/12/08 08:08:50;;;;;;;14.90;6.93;;;1.30;99.90;;;;;;4959497;28;20684;-68
2023/12/08 08:11:16;;;;;;;14.60;7.13;;;1.20;99.90;;;;;;4955923;28;20759;-67
2023/12/08 08:13:43;;;;;;;10.77;6.63;;;1.30;99.90;;;;;;4913327;28;21095;-68
2023/12/08 08:16:10;;;;;;;13.40;7.47;;;0.20;99.90;;;;;;4949770;28;20783;-68
2023/12/08 08:18:37;;;;;;;13.33;8.20;;;1.30;99.90;;;;;;4941729;28;20210;-68
2023/12/08 08:21:05;;;;;;;12.73;7.10;;;1.30;99.90;;;;;;4938638;28;20211;-69
2023/12/08 08:23:32;;;;;;;11.00;7.77;;;1.50;99.90;;;;;;4946418;28;20378;-68
2023/12/08 08:26:00;;;;;;;14.80;7.47;;;1.30;99.90;;;;;;4947666;28;20209;-68
2023/12/08 08:28:27;;;;;;;12.17;7.30;;;1.30;99.90;;;;;;4911565;28;20263;-68
2023/12/08 08:30:54;;;;;;;12.30;7.70;;;1.30;99.90;;;;;;4958841;28;20228;-68
2023/12/08 08:33:22;;;;;;;13.20;8.23;;;;;;;;;;4954575;28;20564;-67
2023/12/08 08:35:49;;;;;;;13.57;8.27;;;1.30;99.90;;;;;;4942218;28;20314;-68
2023/12/08 08:38:16;;;;;;;15.50;7.77;;;1.30;99.90;;;;;;4947709;28;20204;-68
2023/12/08 08:40:43;;;;;;;11.60;7.80;;;1.30;99.90;;;;;;4954908;28;20215;-68
2023/12/08 08:43:11;;;;;;;10.67;7.37;;;1.30;99.90;;;;;;4961549;28;20745;-69
2023/12/08 08:45:38;;;;;;;13.60;8.07;;;1.30;99.90;;;;;;4914852;28;20531;-68
2023/12/08 08:48:05;;;;;;;12.20;7.67;;;1.30;99.90;;;;;;4958755;28;20229;-68
2023/12/08 08:50:32;;;;;;;15.17;7.83;;;;;;;;;;4934389;28;20232;-68
2023/12/08 08:53:00;;;;;;;11.43;7.17;;;1.30;99.90;;;;;;4950523;28;20212;-68
2023/12/08 08:55:27;;;;;;;13.23;7.63;;;1.30;99.90;;;;;;4957887;28;20739;-68
2023/12/08 08:57:55;;;;;;;13.97;7.63;;;1.30;99.90;;;;;;4961479;28;20203;-68
2023/12/08 09:00:25;;;;;;;13.93;7.77;;;1.30;99.90;;;;;;4916836;28;20730;-68
2023/12/08 09:02:52;;;;;;;11.97;6.80;;;1.20;99.90;;;;;;4958320;28;20287;-68
2023/12/08 09:05:19;;;;;;;14.87;8.20;;;1.80;99.90;;;;;;4950304;28;20210;-69
2023/12/08 09:07:46;;;;;;;15.40;7.47;;;1.30;99.90;;;;;;4949238;28;20417;-69
2023/12/08 09:10:14;;;;;;;14.20;7.73;;;1.90;99.90;;;;;;4939791;28;20694;-68
2023/12/08 09:12:41;;;;;;;11.07;6.87;;;1.40;99.90;;;;;;4944673;28;20620;-68
2023/12/08 09:15:08;;;;;;;11.97;7.37;;;1.30;99.90;;;;;;4920289;28;20814;-69
2023/12/08 09:17:37;;;;;;;11.47;7.10;;;2.70;99.90;;;;;;4950498;28;20448;-68
2023/12/08 09:20:07;;;;;;;12.87;7.47;;;1.30;99.90;;;;;;4946748;28;20221;-68
2023/12/08 09:22:34;;;;;;;12.40;7.40;;;1.30;99.90;;;;;;4942620;28;20229;-68
2023/12/08 09:25:01;;;;;;;13.43;7.27;;;1.30;99.90;;;;;;4949606;28;20208;-68
2023/12/08 09:27:28;;;;;;;18.10;7.97;;;1.30;99.90;;;;;;4948598;28;20205;-68
2023/12/08 09:29:55;;;;;;;10.13;7.30;;;1.30;99.90;;;;;;4959482;28;20236;-68
2023/12/08 09:32:22;;;;;;;13.83;8.73;;;1.30;99.90;;;;;;4919840;28;20240;-68
2023/12/08 09:34:50;;;;;;;13.33;7.50;;;1.30;99.90;;;;;;4944638;28;20317;-69
2023/12/08 09:37:17;;;;;;;12.07;7.17;;;1.20;99.90;;;;;;4956317;28;20705;-68
2023/12/08 09:39:44;;;;;;;12.77;6.93;;;1.30;99.90;;;;;;4951730;28;20505;-68
2023/12/08 09:42:22;;;;;;;11.73;7.10;;;1.20;99.90;;;;;;4944413;28;20213;-69
2023/12/08 09:44:50;;;;;;;14.13;8.30;;;1.30;99.90;;;;;;4947790;28;20914;-69
2023/12/08 09:47:19;;;;;;;10.67;7.43;;;1.30;99.90;;;;;;4910946;28;20215;-69
2023/12/08 09:49:48;;;;;;;16.27;7.87;;;1.30;99.90;;;;;;4953721;28;20304;-69
2023/12/08 09:52:16;;;;;;;12.97;8.03;;;1.30;99.90;;;;;;4945091;28;20343;-69
2023/12/08 09:54:45;;;;;;;12.43;7.10;;;1.40;99.90;;;;;;4956942;28;20521;-69
2023/12/08 09:57:13;;;;;;;15.57;8.30;;;1.30;99.90;;;;;;4940854;28;20205;-69
2023/12/08 09:59:42;;;;;;;11.93;6.73;;;1.40;99.90;;;;;;4946801;28;20523;-69
2023/12/08 10:02:09;;;;;;;15.53;7.60;;;1.40;99.90;;;;;;4910917;28;20226;-69
2023/12/08 10:04:36;;;;;;;11.10;6.87;;;1.40;99.90;;;;;;4930807;28;20683;-69
2023/12/08 10:07:04;;;;;;;14.00;8.00;;;1.70;99.90;;;;;;4951729;28;20213;-69
2023/12/08 10:09:33;;;;;;;12.73;7.83;;;1.30;99.90;;;;;;4956446;28;20197;-69
2023/12/08 10:12:00;;;;;;;11.93;7.33;;;1.40;99.90;;;;;;4952219;28;20724;-69
2023/12/08 10:14:27;;;;;;;13.27;7.63;;;1.30;99.90;;;;;;4949116;28;20886;-69
2023/12/08 10:16:54;;;;;;;14.60;7.13;;;1.30;99.90;;;;;;4962406;28;20241;-69
2023/12/08 10:19:22;;;;;;;12.37;6.90;;;1.30;99.90;;;;;;4922265;28;20210;-69
2023/12/08 10:22:00;;;;;;;11.23;7.10;;;1.40;99.90;;;;;;4949139;28;20301;-69
2023/12/08 10:24:28;;;;;;;15.30;7.80;;;1.40;99.90;;;;;;4959523;28;20309;-69
2023/12/08 10:26:58;;;;;;;13.03;7.60;;;1.40;99.90;;;;;;4959547;28;20201;-69
2023/12/08 10:29:24;;;;;;;12.43;6.97;;;1.30;99.90;;;;;;4931367;28;20206;-69
2023/12/08 10:31:52;;;;;;;10.23;7.00;;;1.40;99.90;;;;;;4961340;28;20333;-69
2023/12/08 10:34:19;;;;;;;12.43;7.17;;;1.30;99.90;;;;;;4919722;28;20241;-70
2023/12/08 10:36:46;;;;;;;17.63;10.07;;;1.40;99.90;;;;;;4961964;28;20193;-69
2023/12/08 10:39:13;;;;;;;14.83;8.77;;;1.40;99.90;;;;;;4942902;28;20463;-69
2023/12/08 10:41:40;;;;;;;14.03;7.70;;;1.40;99.90;;;;;;4957054;28;20605;-69
2023/12/08 10:44:09;;;;;;;12.03;7.53;;;1.50;99.90;;;;;;4946871;28;20299;-69
2023/12/08 10:46:36;;;;;;;13.60;7.80;;;1.40;99.90;;;;;;4949302;28;20701;-69
2023/12/08 10:49:04;;;;;;;13.63;6.97;;;1.30;99.90;;;;;;4921290;28;20221;-69
2023/12/08 10:51:32;;;;;;;11.23;6.77;;;1.40;99.90;;;;;;4957840;28;20465;-70
2023/12/08 10:54:00;;;;;;;14.10;8.07;;;1.40;99.90;;;;;;4951429;28;20212;-69
2023/12/08 10:56:28;;;;;;;10.83;6.57;;;1.40;99.90;;;;;;4956708;28;20629;-69
2023/12/08 10:59:01;;;;;;;12.13;7.33;;;1.50;99.90;;;;;;4930653;28;20236;-69
2023/12/08 11:01:33;;;;;;;11.80;7.00;;;1.80;99.90;;;;;;4930746;28;20259;-70
2023/12/08 11:04:05;;;;;;;13.57;7.60;;;1.50;99.90;;;;;;4905659;28;20205;-70
2023/12/08 11:06:35;;;;;;;9.43;6.53;;;1.00;99.90;;;;;;4941725;28;20446;-69
2023/12/08 11:09:07;;;;;;;15.07;8.20;;;1.40;99.90;;;;;;4938744;28;20299;-70
2023/12/08 11:11:36;;;;;;;12.73;7.40;;;1.50;99.90;;;;;;4938140;28;20233;-70
2023/12/08 11:14:09;;;;;;;12.93;7.90;;;1.50;99.90;;;;;;4946942;28;20722;-69
2023/12/08 11:16:45;;;;;;;9.87;7.23;;;1.40;99.90;;;;;;4940694;28;20402;-69
2023/12/08 11:19:14;;;;;;;12.93;7.90;;;1.50;99.90;;;;;;4889081;28;20598;-69
2023/12/08 11:21:41;;;;;;;11.57;6.77;;;1.50;99.90;;;;;;4943706;28;20747;-69
2023/12/08 11:24:09;;;;;;;11.07;7.60;;;1.50;99.90;;;;;;4942897;28;20222;-69
2023/12/08 11:26:42;;;;;;;14.10;7.90;;;1.60;99.90;;;;;;4946791;28;20736;-68
2023/12/08 11:29:17;;;;;;;14.73;8.43;;;1.50;99.90;;;;;;4942014;28;20210;-69
2023/12/08 11:31:50;;;;;;;14.30;7.67;;;1.50;99.90;;;;;;4946049;28;20241;-69
2023/12/08 11:34:22;;;;;;;12.97;7.90;;;1.50;99.90;;;;;;4948311;28;20218;-69
2023/12/08 11:36:51;;;;;;;12.10;6.33;;;1.90;99.90;;;;;;4913196;28;21019;-69
2023/12/08 11:39:41;;;;;;;13.83;7.33;;;1.90;99.90;;;;;;4950078;28;20202;-68
2023/12/08 11:42:09;;;;;;;13.00;7.53;;;1.80;99.90;;;;;;4959372;28;20204;-69
2023/12/08 11:44:37;;;;;;;13.90;8.30;;;2.20;99.90;;;;;;4951801;28;20294;-68
2023/12/08 11:47:07;;;;;;;12.03;7.23;;;1.50;99.90;;;;;;4944318;28;20988;-68
2023/12/08 11:49:35;;;;;;;11.57;7.97;;;1.70;99.90;;;;;;4945244;28;20258;-69
2023/12/08 11:52:09;;;;;;;12.90;7.43;;;1.70;99.90;;;;;;4922185;28;20881;-69
2023/12/08 11:54:58;;;;;;;17.27;9.17;;;1.70;99.90;;;;;;4938684;28;20793;-69
2023/12/08 11:57:25;;;;;;;12.03;8.10;;;1.70;99.90;;;;;;4950332;28;20209;-69
2023/12/08 11:59:52;;;;;;;12.13;8.00;;;1.70;99.90;;;;;;4950090;28;20465;-69
2023/12/08 12:02:20;;;;;;;12.60;7.57;;;1.90;99.90;;;;;;4947184;28;20210;-69
2023/12/08 12:04:49;;;;;;;11.27;7.60;;;1.60;99.90;;;;;;4946333;28;20211;-69
2023/12/08 12:07:19;;;;;;;11.93;7.60;;;1.70;99.90;;;;;;4924753;28;20211;-69
2023/12/08 12:09:50;;;;;;;13.03;7.90;;;1.60;99.90;;;;;;4944891;28;20213;-69
2023/12/08 12:12:24;;;;;;;13.43;8.23;;;1.70;99.90;;;;;;4925309;28;20233;-69
2023/12/08 12:14:55;;;;;;;13.63;7.93;;;1.70;99.90;;;;;;4955828;28;20203;-69
2023/12/08 12:17:24;;;;;;;14.50;8.50;;;1.70;99.90;;;;;;4937130;28;20439;-69
2023/12/08 12:19:51;;;;;;;15.53;7.93;;;1.70;99.90;;;;;;4942099;28;20225;-69
2023/12/08 12:22:18;;;;;;;12.80;8.27;;;1.60;99.90;;;;;;4912581;28;26902;-69
2023/12/08 12:24:45;;;;;;;13.20;8.27;;;1.70;99.90;;;;;;4943739;28;20203;-69
2023/12/08 12:27:13;;;;;;;15.07;7.93;;;;;;;;;;4942444;28;20203;-69
2023/12/08 12:29:39;;;;;;;13.70;7.80;;;1.60;99.90;;;;;;4951800;28;20242;-68
2023/12/08 12:32:08;;;;;;;16.10;8.20;;;1.70;99.90;;;;;;4945400;28;20222;-68
2023/12/08 12:34:37;;;;;;;15.27;8.20;;;1.70;99.90;;;;;;4942935;28;20660;-68
2023/12/08 12:37:04;;;;;;;14.10;8.70;;;-0.20;99.90;;;;;;4941655;28;20416;-68
2023/12/08 12:39:31;;;;;;;15.00;8.47;;;2.00;99.90;;;;;;4905081;28;20207;-68
2023/12/08 12:41:59;;;;;;;13.50;8.70;;;1.70;99.90;;;;;;4948442;28;20570;-68
2023/12/08 12:44:39;;;;;;;12.87;7.83;;;1.70;99.90;;;;;;4952677;28;20203;-68
2023/12/08 12:47:09;;;;;;;12.73;8.67;;;1.70;99.90;;;;;;4954592;28;20202;-68
2023/12/08 12:49:38;;;;;;;11.97;8.23;;;1.70;99.90;;;;;;4936442;28;20320;-68
2023/12/08 12:52:20;;;;;;;14.57;8.20;;;1.70;99.90;;;;;;4939956;28;20255;-68
2023/12/08 12:54:48;;;;;;;13.43;8.27;;;1.80;99.90;;;;;;4928999;28;20214;-68
2023/12/08 12:57:16;;;;;;;13.87;8.70;;;1.80;99.90;;;;;;4950106;28;20204;-68